sensor_id;sensor_type;location;lat;lon;timestamp;pressure;altitude;pressure_sealevel;temperature;humidity
21730;BME280;11027;51.030;13.812;2023-04-16T00:02:22;100029.22;;;9.30;77.45
21730;BME280;11027;51.030;13.812;2023-04-16T00:04:48;100028.53;;;9.28;77.25
21730;BME280;11027;51.030;13.812;2023-04-16T00:07:13;100030.41;;;9.28;77.35
21730;BME280;11027;51.030;13.812;2023-04-16T00:09:38;100037.91;;;9.26;77.37
21730;BME280;11027;51.030;13.812;2023-04-16T00:12:04;100036.41;;;9.23;77.34
21730;BME280;11027;51.030;13.812;2023-04-16T00:14:30;100039.44;;;9.20;77.38
21730;BME280;11027;51.030;13.812;2023-04-16T00:16:55;100039.09;;;9.15;77.45
21730;BME280;11027;51.030;13.812;2023-04-16T00:19:20;100036.09;;;9.10;77.56
21730;BME280;11027;51.030;13.812;2023-04-16T00:21:46;100046.63;;;9.05;77.72
21730;BME280;11027;51.030;13.812;2023-04-16T00:24:11;100046.97;;;9.01;77.87
21730;BME280;11027;51.030;13.812;2023-04-16T00:26:36;100045.25;;;9.00;78.01
21730;BME280;11027;51.030;13.812;2023-04-16T00:29:01;100055.66;;;8.97;77.87
21730;BME280;11027;51.030;13.812;2023-04-16T00:31:31;100051.41;;;8.94;78.19
21730;BME280;11027;51.030;13.812;2023-04-16T00:33:57;100053.44;;;8.92;78.02
21730;BME280;11027;51.030;13.812;2023-04-16T00:36:23;100056.34;;;8.91;78.18
21730;BME280;11027;51.030;13.812;2023-04-16T00:38:49;100063.63;;;8.90;78.17
21730;BME280;11027;51.030;13.812;2023-04-16T00:41:15;100057.53;;;8.88;78.06
21730;BME280;11027;51.030;13.812;2023-04-16T00:43:41;100057.53;;;8.88;78.05
21730;BME280;11027;51.030;13.812;2023-04-16T00:46:07;100059.56;;;8.86;78.07
21730;BME280;11027;51.030;13.812;2023-04-16T00:48:33;100063.31;;;8.85;78.01
21730;BME280;11027;51.030;13.812;2023-04-16T00:50:58;100057.53;;;8.80;78.04
21730;BME280;11027;51.030;13.812;2023-04-16T00:53:26;100066.38;;;8.74;78.00
21730;BME280;11027;51.030;13.812;2023-04-16T00:55:51;100059.41;;;8.71;78.09
21730;BME280;11027;51.030;13.812;2023-04-16T00:58:17;100059.94;;;8.67;78.30
21730;BME280;11027;51.030;13.812;2023-04-16T01:00:42;100057.72;;;8.62;78.28
21730;BME280;11027;51.030;13.812;2023-04-16T01:03:07;100057.22;;;8.58;78.49
21730;BME280;11027;51.030;13.812;2023-04-16T01:05:35;100059.59;;;8.61;78.41
21730;BME280;11027;51.030;13.812;2023-04-16T01:08:00;100063.16;;;8.62;78.46
21730;BME280;11027;51.030;13.812;2023-04-16T01:10:25;100058.75;;;8.61;78.46
21730;BME280;11027;51.030;13.812;2023-04-16T01:12:51;100066.06;;;8.60;78.54
21730;BME280;11027;51.030;13.812;2023-04-16T01:15:16;100064.03;;;8.63;78.25
21730;BME280;11027;51.030;13.812;2023-04-16T01:17:43;100061.97;;;8.65;78.31
21730;BME280;11027;51.030;13.812;2023-04-16T01:20:09;100061.97;;;8.65;77.96
21730;BME280;11027;51.030;13.812;2023-04-16T01:22:34;100063.16;;;8.62;78.03
21730;BME280;11027;51.030;13.812;2023-04-16T01:24:59;100061.31;;;8.54;77.96
21730;BME280;11027;51.030;13.812;2023-04-16T01:27:25;100066.56;;;8.48;77.97
21730;BME280;11027;51.030;13.812;2023-04-16T01:29:51;100068.94;;;8.43;78.05
21730;BME280;11027;51.030;13.812;2023-04-16T01:32:16;100071.47;;;8.44;77.87
21730;BME280;11027;51.030;13.812;2023-04-16T01:34:41;100067.06;;;8.43;78.25
21730;BME280;11027;51.030;13.812;2023-04-16T01:37:07;100078.59;;;8.45;78.29
21730;BME280;11027;51.030;13.812;2023-04-16T01:39:32;100080.28;;;8.46;78.15
21730;BME280;11027;51.030;13.812;2023-04-16T01:41:57;100082.50;;;8.43;78.28
21730;BME280;11027;51.030;13.812;2023-04-16T01:44:22;100078.41;;;8.38;78.27
21730;BME280;11027;51.030;13.812;2023-04-16T01:46:48;100087.03;;;8.34;78.81
21730;BME280;11027;51.030;13.812;2023-04-16T01:49:13;100079.25;;;8.31;78.68
21730;BME280;11027;51.030;13.812;2023-04-16T01:51:39;100079.41;;;8.29;78.64
21730;BME280;11027;51.030;13.812;2023-04-16T01:54:05;100072.44;;;8.27;78.52
21730;BME280;11027;51.030;13.812;2023-04-16T01:56:30;100074.97;;;8.20;78.65
21730;BME280;11027;51.030;13.812;2023-04-16T01:58:55;100074.94;;;8.12;78.82
21730;BME280;11027;51.030;13.812;2023-04-16T02:01:20;100076.81;;;8.11;78.95
21730;BME280;11027;51.030;13.812;2023-04-16T02:03:46;100075.47;;;8.07;79.08
21730;BME280;11027;51.030;13.812;2023-04-16T02:06:11;100076.13;;;8.01;79.01
21730;BME280;11027;51.030;13.812;2023-04-16T02:08:36;100083.94;;;7.96;78.94
21730;BME280;11027;51.030;13.812;2023-04-16T02:11:02;100086.28;;;7.91;79.01
21730;BME280;11027;51.030;13.812;2023-04-16T02:13:27;100084.22;;;7.85;79.26
21730;BME280;11027;51.030;13.812;2023-04-16T02:15:52;100087.25;;;7.81;79.24
21730;BME280;11027;51.030;13.812;2023-04-16T02:18:18;100087.75;;;7.77;79.24
21730;BME280;11027;51.030;13.812;2023-04-16T02:20:44;100088.78;;;7.76;79.30
21730;BME280;11027;51.030;13.812;2023-04-16T02:23:11;100086.25;;;7.74;79.22
21730;BME280;11027;51.030;13.812;2023-04-16T02:25:42;100088.25;;;7.72;79.40
21730;BME280;11027;51.030;13.812;2023-04-16T02:28:08;100093.84;;;7.71;79.35
21730;BME280;11027;51.030;13.812;2023-04-16T02:30:38;100095.72;;;7.70;79.56
21730;BME280;11027;51.030;13.812;2023-04-16T02:33:05;100100.09;;;7.71;79.52
21730;BME280;11027;51.030;13.812;2023-04-16T02:35:32;100100.78;;;7.73;79.69
21730;BME280;11027;51.030;13.812;2023-04-16T02:37:57;100096.06;;;7.75;79.80
21730;BME280;11027;51.030;13.812;2023-04-16T02:40:23;100101.47;;;7.75;79.86
21730;BME280;11027;51.030;13.812;2023-04-16T02:42:48;100118.78;;;7.74;79.82
21730;BME280;11027;51.030;13.812;2023-04-16T02:45:14;100106.22;;;7.73;79.83
21730;BME280;11027;51.030;13.812;2023-04-16T02:47:39;100112.81;;;7.71;79.82
21730;BME280;11027;51.030;13.812;2023-04-16T02:50:05;100105.19;;;7.66;79.97
21730;BME280;11027;51.030;13.812;2023-04-16T02:52:30;100116.34;;;7.63;79.82
21730;BME280;11027;51.030;13.812;2023-04-16T02:54:56;100116.69;;;7.60;79.76
21730;BME280;11027;51.030;13.812;2023-04-16T02:57:22;100115.31;;;7.56;79.74
21730;BME280;11027;51.030;13.812;2023-04-16T02:59:47;100119.72;;;7.57;79.78
21730;BME280;11027;51.030;13.812;2023-04-16T03:02:12;100121.56;;;7.56;79.50
21730;BME280;11027;51.030;13.812;2023-04-16T03:04:37;100113.94;;;7.52;79.56
21730;BME280;11027;51.030;13.812;2023-04-16T03:07:03;100118.00;;;7.48;79.48
21730;BME280;11027;51.030;13.812;2023-04-16T03:09:28;100118.63;;;7.41;79.68
21730;BME280;11027;51.030;13.812;2023-04-16T03:11:53;100122.34;;;7.40;79.71
21730;BME280;11027;51.030;13.812;2023-04-16T03:14:18;100129.09;;;7.36;79.56
21730;BME280;11027;51.030;13.812;2023-04-16T03:16:44;100125.00;;;7.32;79.52
21730;BME280;11027;51.030;13.812;2023-04-16T03:19:09;100123.63;;;7.28;79.69
21730;BME280;11027;51.030;13.812;2023-04-16T03:21:35;100135.50;;;7.27;79.62
21730;BME280;11027;51.030;13.812;2023-04-16T03:24:00;100128.50;;;7.25;79.54
21730;BME280;11027;51.030;13.812;2023-04-16T03:26:25;100136.28;;;7.19;79.66
21730;BME280;11027;51.030;13.812;2023-04-16T03:28:51;100137.78;;;7.14;79.70
21730;BME280;11027;51.030;13.812;2023-04-16T03:31:16;100148.91;;;7.11;79.79
21730;BME280;11027;51.030;13.812;2023-04-16T03:33:41;100148.91;;;7.11;79.65
21730;BME280;11027;51.030;13.812;2023-04-16T03:36:07;100152.09;;;7.06;79.49
21730;BME280;11027;51.030;13.812;2023-04-16T03:38:32;100151.41;;;7.04;79.68
21730;BME280;11027;51.030;13.812;2023-04-16T03:40:57;100154.13;;;7.04;79.68
21730;BME280;11027;51.030;13.812;2023-04-16T03:43:22;100156.97;;;7.03;79.61
21730;BME280;11027;51.030;13.812;2023-04-16T03:45:48;100159.00;;;7.00;79.43
21730;BME280;11027;51.030;13.812;2023-04-16T03:48:13;100159.31;;;6.97;79.48
21730;BME280;11027;51.030;13.812;2023-04-16T03:50:38;100157.41;;;6.90;79.47
21730;BME280;11027;51.030;13.812;2023-04-16T03:53:03;100167.38;;;6.89;79.66
21730;BME280;11027;51.030;13.812;2023-04-16T03:55:29;100164.13;;;6.86;79.49
21730;BME280;11027;51.030;13.812;2023-04-16T03:57:54;100170.88;;;6.81;79.38
21730;BME280;11027;51.030;13.812;2023-04-16T04:00:20;100175.91;;;6.76;79.36
21730;BME280;11027;51.030;13.812;2023-04-16T04:02:45;100177.22;;;6.72;79.51
21730;BME280;11027;51.030;13.812;2023-04-16T04:05:11;100189.06;;;6.71;79.39
21730;BME280;11027;51.030;13.812;2023-04-16T04:07:36;100189.53;;;6.67;79.25
21730;BME280;11027;51.030;13.812;2023-04-16T04:10:01;100195.25;;;6.64;79.42
21730;BME280;11027;51.030;13.812;2023-04-16T04:12:26;100186.97;;;6.65;79.44
21730;BME280;11027;51.030;13.812;2023-04-16T04:14:51;100196.09;;;6.64;79.33
21730;BME280;11027;51.030;13.812;2023-04-16T04:17:17;100195.56;;;6.60;79.26
21730;BME280;11027;51.030;13.812;2023-04-16T04:19:42;100200.44;;;6.57;79.44
21730;BME280;11027;51.030;13.812;2023-04-16T04:22:07;100196.56;;;6.59;79.21
21730;BME280;11027;51.030;13.812;2023-04-16T04:24:32;100200.28;;;6.58;79.38
21730;BME280;11027;51.030;13.812;2023-04-16T04:26:58;100197.59;;;6.58;79.39
21730;BME280;11027;51.030;13.812;2023-04-16T04:29:23;100203.84;;;6.59;79.39
21730;BME280;11027;51.030;13.812;2023-04-16T04:31:48;100204.69;;;6.59;79.53
21730;BME280;11027;51.030;13.812;2023-04-16T04:34:13;100210.09;;;6.59;79.48
21730;BME280;11027;51.030;13.812;2023-04-16T04:36:39;100210.78;;;6.61;79.47
21730;BME280;11027;51.030;13.812;2023-04-16T04:39:04;100206.41;;;6.60;79.42
21730;BME280;11027;51.030;13.812;2023-04-16T04:41:30;100205.53;;;6.60;79.66
21730;BME280;11027;51.030;13.812;2023-04-16T04:43:55;100205.31;;;6.53;79.69
21730;BME280;11027;51.030;13.812;2023-04-16T04:46:20;100215.44;;;6.51;79.60
21730;BME280;11027;51.030;13.812;2023-04-16T04:48:46;100211.41;;;6.55;79.86
21730;BME280;11027;51.030;13.812;2023-04-16T04:51:11;100207.38;;;6.59;79.73
21730;BME280;11027;51.030;13.812;2023-04-16T04:53:36;100218.38;;;6.58;79.49
21730;BME280;11027;51.030;13.812;2023-04-16T04:56:01;100215.84;;;6.56;79.45
21730;BME280;11027;51.030;13.812;2023-04-16T04:58:27;100218.53;;;6.56;79.41
21730;BME280;11027;51.030;13.812;2023-04-16T05:00:52;100214.66;;;6.59;79.46
21730;BME280;11027;51.030;13.812;2023-04-16T05:03:20;100220.94;;;6.59;79.34
21730;BME280;11027;51.030;13.812;2023-04-16T05:05:46;100217.22;;;6.60;79.30
21730;BME280;11027;51.030;13.812;2023-04-16T05:08:11;100229.44;;;6.65;79.26
21730;BME280;11027;51.030;13.812;2023-04-16T05:10:36;100227.44;;;6.67;78.96
21730;BME280;11027;51.030;13.812;2023-04-16T05:13:02;100228.06;;;6.60;78.74
21730;BME280;11027;51.030;13.812;2023-04-16T05:15:27;100234.38;;;6.51;78.99
21730;BME280;11027;51.030;13.812;2023-04-16T05:17:52;100234.56;;;6.40;79.34
21730;BME280;11027;51.030;13.812;2023-04-16T05:20:19;100238.59;;;6.36;79.55
21730;BME280;11027;51.030;13.812;2023-04-16T05:22:45;100243.31;;;6.34;79.60
21730;BME280;11027;51.030;13.812;2023-04-16T05:25:10;100241.28;;;6.36;79.81
21730;BME280;11027;51.030;13.812;2023-04-16T05:27:35;100245.13;;;6.43;79.84
21730;BME280;11027;51.030;13.812;2023-04-16T05:30:01;100250.91;;;6.48;79.87
21730;BME280;11027;51.030;13.812;2023-04-16T05:32:26;100252.38;;;6.43;79.85
21730;BME280;11027;51.030;13.812;2023-04-16T05:34:52;100251.84;;;6.39;80.01
21730;BME280;11027;51.030;13.812;2023-04-16T05:37:17;100253.00;;;6.36;79.93
21730;BME280;11027;51.030;13.812;2023-04-16T05:39:42;100252.13;;;6.36;80.65
21730;BME280;11027;51.030;13.812;2023-04-16T05:42:08;100255.53;;;6.38;80.79
21730;BME280;11027;51.030;13.812;2023-04-16T05:44:33;100256.94;;;6.42;81.05
21730;BME280;11027;51.030;13.812;2023-04-16T05:46:58;100256.31;;;6.48;81.22
21730;BME280;11027;51.030;13.812;2023-04-16T05:49:23;100257.44;;;6.55;81.06
21730;BME280;11027;51.030;13.812;2023-04-16T05:51:49;100258.22;;;6.66;81.04
21730;BME280;11027;51.030;13.812;2023-04-16T05:54:14;100262.16;;;6.71;81.20
21730;BME280;11027;51.030;13.812;2023-04-16T05:56:39;100264.41;;;6.76;81.08
21730;BME280;11027;51.030;13.812;2023-04-16T05:59:05;100263.78;;;6.82;81.11
21730;BME280;11027;51.030;13.812;2023-04-16T06:01:31;100275.88;;;6.88;81.14
21730;BME280;11027;51.030;13.812;2023-04-16T06:03:56;100271.69;;;6.93;81.15
21730;BME280;11027;51.030;13.812;2023-04-16T06:06:22;100273.78;;;6.99;81.31
21730;BME280;11027;51.030;13.812;2023-04-16T06:08:47;100282.97;;;7.07;80.99
21730;BME280;11027;51.030;13.812;2023-04-16T06:11:12;100281.38;;;7.14;80.88
21730;BME280;11027;51.030;13.812;2023-04-16T06:13:38;100280.03;;;7.18;80.89
21730;BME280;11027;51.030;13.812;2023-04-16T06:16:03;100287.16;;;7.19;81.00
21730;BME280;11027;51.030;13.812;2023-04-16T06:18:29;100278.03;;;7.20;81.24
21730;BME280;11027;51.030;13.812;2023-04-16T06:20:54;100279.03;;;7.19;81.42
21730;BME280;11027;51.030;13.812;2023-04-16T06:23:19;100287.53;;;7.24;81.49
21730;BME280;11027;51.030;13.812;2023-04-16T06:25:45;100288.63;;;7.31;81.53
21730;BME280;11027;51.030;13.812;2023-04-16T06:28:10;100287.69;;;7.40;81.46
21730;BME280;11027;51.030;13.812;2023-04-16T06:30:35;100290.16;;;7.52;81.46
21730;BME280;11027;51.030;13.812;2023-04-16T06:33:01;100292.13;;;7.68;81.50
21730;BME280;11027;51.030;13.812;2023-04-16T06:35:26;100291.72;;;7.80;81.33
21730;BME280;11027;51.030;13.812;2023-04-16T06:37:51;100297.19;;;7.89;81.39
21730;BME280;11027;51.030;13.812;2023-04-16T06:40:16;100289.78;;;7.99;81.32
21730;BME280;11027;51.030;13.812;2023-04-16T06:42:42;100294.06;;;8.10;81.02
21730;BME280;11027;51.030;13.812;2023-04-16T06:45:07;100291.25;;;8.19;80.86
21730;BME280;11027;51.030;13.812;2023-04-16T06:47:33;100295.69;;;8.29;80.37
21730;BME280;11027;51.030;13.812;2023-04-16T06:49:58;100289.63;;;8.35;80.86
21730;BME280;11027;51.030;13.812;2023-04-16T06:52:23;100285.56;;;8.39;80.45
21730;BME280;11027;51.030;13.812;2023-04-16T06:54:48;100292.41;;;8.43;80.42
21730;BME280;11027;51.030;13.812;2023-04-16T06:57:14;100298.16;;;8.48;80.32
21730;BME280;11027;51.030;13.812;2023-04-16T06:59:40;100290.72;;;8.50;80.53
21730;BME280;11027;51.030;13.812;2023-04-16T07:02:08;100290.56;;;8.52;80.31
21730;BME280;11027;51.030;13.812;2023-04-16T07:04:33;100292.13;;;8.63;80.10
21730;BME280;11027;51.030;13.812;2023-04-16T07:06:59;100291.81;;;8.74;80.07
21730;BME280;11027;51.030;13.812;2023-04-16T07:09:24;100281.81;;;8.82;79.82
21730;BME280;11027;51.030;13.812;2023-04-16T07:11:50;100298.31;;;8.89;79.66
21730;BME280;11027;51.030;13.812;2023-04-16T07:14:16;100303.09;;;8.95;79.53
21730;BME280;11027;51.030;13.812;2023-04-16T07:16:41;100299.84;;;9.00;79.07
21730;BME280;11027;51.030;13.812;2023-04-16T07:19:06;100293.06;;;9.04;79.28
21730;BME280;11027;51.030;13.812;2023-04-16T07:21:31;100298.00;;;9.09;79.06
21730;BME280;11027;51.030;13.812;2023-04-16T07:23:57;100308.53;;;9.12;79.16
21730;BME280;11027;51.030;13.812;2023-04-16T07:26:22;100295.28;;;9.17;78.77
21730;BME280;11027;51.030;13.812;2023-04-16T07:28:47;100305.50;;;9.23;78.77
21730;BME280;11027;51.030;13.812;2023-04-16T07:31:12;100304.31;;;9.34;78.86
21730;BME280;11027;51.030;13.812;2023-04-16T07:33:38;100302.97;;;9.46;78.63
21730;BME280;11027;51.030;13.812;2023-04-16T07:36:03;100311.63;;;9.58;78.46
21730;BME280;11027;51.030;13.812;2023-04-16T07:38:29;100311.63;;;9.66;77.92
21730;BME280;11027;51.030;13.812;2023-04-16T07:40:54;100309.41;;;9.78;77.90
21730;BME280;11027;51.030;13.812;2023-04-16T07:43:20;100315.31;;;9.81;77.36
21730;BME280;11027;51.030;13.812;2023-04-16T07:45:45;100309.22;;;9.88;77.13
21730;BME280;11027;51.030;13.812;2023-04-16T07:48:11;100312.78;;;9.96;76.96
21730;BME280;11027;51.030;13.812;2023-04-16T07:50:36;100315.13;;;10.08;76.74
21730;BME280;11027;51.030;13.812;2023-04-16T07:53:01;100320.03;;;10.20;76.72
21730;BME280;11027;51.030;13.812;2023-04-16T07:55:26;100311.34;;;10.33;76.29
21730;BME280;11027;51.030;13.812;2023-04-16T07:57:52;100316.88;;;10.48;76.08
21730;BME280;11027;51.030;13.812;2023-04-16T08:00:17;100310.88;;;10.61;75.73
21730;BME280;11027;51.030;13.812;2023-04-16T08:02:43;100318.66;;;10.72;75.39
21730;BME280;11027;51.030;13.812;2023-04-16T08:05:09;100308.38;;;10.82;74.84
21730;BME280;11027;51.030;13.812;2023-04-16T08:07:35;100302.91;;;10.91;74.35
21730;BME280;11027;51.030;13.812;2023-04-16T08:10:00;100310.84;;;11.00;74.01
21730;BME280;11027;51.030;13.812;2023-04-16T08:12:26;100315.22;;;11.10;73.68
21730;BME280;11027;51.030;13.812;2023-04-16T08:14:51;100312.53;;;11.01;73.13
21730;BME280;11027;51.030;13.812;2023-04-16T08:17:16;100318.97;;;11.09;73.20
21730;BME280;11027;51.030;13.812;2023-04-16T08:19:43;100317.22;;;11.16;72.99
21730;BME280;11027;51.030;13.812;2023-04-16T08:22:12;100319.88;;;11.24;72.57
21730;BME280;11027;51.030;13.812;2023-04-16T08:24:37;100320.56;;;11.26;72.21
21730;BME280;11027;51.030;13.812;2023-04-16T08:27:02;100328.00;;;11.32;72.12
21730;BME280;11027;51.030;13.812;2023-04-16T08:29:28;100321.75;;;11.47;71.88
21730;BME280;11027;51.030;13.812;2023-04-16T08:31:53;100333.28;;;11.57;71.53
21730;BME280;11027;51.030;13.812;2023-04-16T08:34:19;100339.22;;;11.60;71.28
21730;BME280;11027;51.030;13.812;2023-04-16T08:36:45;100341.59;;;11.64;71.39
21730;BME280;11027;51.030;13.812;2023-04-16T08:39:10;100338.47;;;11.67;71.64
21730;BME280;11027;51.030;13.812;2023-04-16T08:41:37;100352.63;;;11.70;71.57
21730;BME280;11027;51.030;13.812;2023-04-16T08:44:34;100358.84;;;11.79;71.77
21730;BME280;11027;51.030;13.812;2023-04-16T08:46:57;100358.09;;;11.85;71.60
21730;BME280;11027;51.030;13.812;2023-04-16T08:49:24;100357.25;;;11.85;71.17
21730;BME280;11027;51.030;13.812;2023-04-16T08:51:51;100351.81;;;11.85;71.36
21730;BME280;11027;51.030;13.812;2023-04-16T08:54:30;100347.34;;;11.92;71.45
21730;BME280;11027;51.030;13.812;2023-04-16T08:56:57;100349.44;;;12.05;71.27
21730;BME280;11027;51.030;13.812;2023-04-16T08:59:24;100348.13;;;12.15;70.91
21730;BME280;11027;51.030;13.812;2023-04-16T09:01:50;100346.63;;;12.28;70.84
21730;BME280;11027;51.030;13.812;2023-04-16T09:04:17;100345.50;;;12.37;70.78
21730;BME280;11027;51.030;13.812;2023-04-16T09:06:43;100350.88;;;12.45;70.56
21730;BME280;11027;51.030;13.812;2023-04-16T09:09:10;100345.31;;;12.53;70.67
21730;BME280;11027;51.030;13.812;2023-04-16T09:11:36;100353.41;;;12.61;69.76
21730;BME280;11027;51.030;13.812;2023-04-16T09:14:03;100353.97;;;12.72;69.56
21730;BME280;11027;51.030;13.812;2023-04-16T09:16:32;100354.16;;;12.85;69.49
21730;BME280;11027;51.030;13.812;2023-04-16T09:18:58;100357.25;;;12.97;68.79
21730;BME280;11027;51.030;13.812;2023-04-16T09:21:23;100363.16;;;13.00;68.46
21730;BME280;11027;51.030;13.812;2023-04-16T09:23:52;100360.31;;;13.09;68.32
21730;BME280;11027;51.030;13.812;2023-04-16T09:26:17;100358.03;;;13.27;68.20
21730;BME280;11027;51.030;13.812;2023-04-16T09:28:45;100355.19;;;13.35;67.42
21730;BME280;11027;51.030;13.812;2023-04-16T09:31:15;100367.16;;;13.34;66.74
21730;BME280;11027;51.030;13.812;2023-04-16T09:33:41;100358.81;;;13.43;66.80
21730;BME280;11027;51.030;13.812;2023-04-16T09:36:08;100355.41;;;13.55;66.36
21730;BME280;11027;51.030;13.812;2023-04-16T09:38:47;100360.13;;;13.68;66.16
21730;BME280;11027;51.030;13.812;2023-04-16T09:41:13;100367.44;;;13.83;66.01
21730;BME280;11027;51.030;13.812;2023-04-16T09:43:41;100361.50;;;13.79;65.60
21730;BME280;11027;51.030;13.812;2023-04-16T09:46:10;100362.78;;;13.83;65.55
21730;BME280;11027;51.030;13.812;2023-04-16T09:48:36;100370.44;;;13.88;65.09
21730;BME280;11027;51.030;13.812;2023-04-16T09:51:04;100367.88;;;13.86;65.02
21730;BME280;11027;51.030;13.812;2023-04-16T09:53:30;100377.25;;;13.98;65.49
21730;BME280;11027;51.030;13.812;2023-04-16T09:56:03;100377.56;;;14.10;65.27
21730;BME280;11027;51.030;13.812;2023-04-16T09:58:29;100375.28;;;14.14;64.51
21730;BME280;11027;51.030;13.812;2023-04-16T10:01:14;100375.72;;;14.17;64.46
21730;BME280;11027;51.030;13.812;2023-04-16T10:03:41;100379.09;;;14.19;64.36
21730;BME280;11027;51.030;13.812;2023-04-16T10:06:16;100380.81;;;14.20;64.06
21730;BME280;11027;51.030;13.812;2023-04-16T10:11:12;100378.38;;;14.32;63.74
21730;BME280;11027;51.030;13.812;2023-04-16T10:13:37;100386.81;;;14.37;63.08
21730;BME280;11027;51.030;13.812;2023-04-16T10:16:03;100377.97;;;14.42;63.20
21730;BME280;11027;51.030;13.812;2023-04-16T10:18:29;100381.78;;;14.41;63.08
21730;BME280;11027;51.030;13.812;2023-04-16T10:20:56;100384.84;;;14.25;63.08
21730;BME280;11027;51.030;13.812;2023-04-16T10:23:21;100386.97;;;14.01;63.20
21730;BME280;11027;51.030;13.812;2023-04-16T10:25:48;100382.72;;;13.98;63.81
21730;BME280;11027;51.030;13.812;2023-04-16T10:28:14;100385.28;;;14.00;63.62
21730;BME280;11027;51.030;13.812;2023-04-16T10:30:41;100378.22;;;14.12;63.49
21730;BME280;11027;51.030;13.812;2023-04-16T10:33:08;100383.78;;;14.26;63.35
21730;BME280;11027;51.030;13.812;2023-04-16T10:35:38;100382.34;;;14.30;62.36
21730;BME280;11027;51.030;13.812;2023-04-16T10:38:27;100390.16;;;14.33;62.12
21730;BME280;11027;51.030;13.812;2023-04-16T10:41:00;100377.56;;;14.38;61.77
21730;BME280;11027;51.030;13.812;2023-04-16T10:43:27;100388.06;;;14.35;60.89
21730;BME280;11027;51.030;13.812;2023-04-16T10:45:53;100386.88;;;14.44;61.06
21730;BME280;11027;51.030;13.812;2023-04-16T10:48:19;100389.00;;;14.49;60.20
21730;BME280;11027;51.030;13.812;2023-04-16T10:50:55;100386.09;;;14.50;60.49
21730;BME280;11027;51.030;13.812;2023-04-16T10:53:25;100381.13;;;14.60;60.60
21730;BME280;11027;51.030;13.812;2023-04-16T10:58:30;100384.75;;;14.74;60.55
21730;BME280;11027;51.030;13.812;2023-04-16T11:00:59;100379.16;;;14.89;60.65
21730;BME280;11027;51.030;13.812;2023-04-16T11:03:31;100381.28;;;14.94;59.81
21730;BME280;11027;51.030;13.812;2023-04-16T11:06:16;100386.56;;;14.95;60.12
21730;BME280;11027;51.030;13.812;2023-04-16T11:08:44;100389.94;;;14.97;58.72
21730;BME280;11027;51.030;13.812;2023-04-16T11:11:11;100395.00;;;15.00;58.16
21730;BME280;11027;51.030;13.812;2023-04-16T11:13:36;100394.00;;;15.08;58.04
21730;BME280;11027;51.030;13.812;2023-04-16T11:16:05;100380.97;;;15.17;57.17
21730;BME280;11027;51.030;13.812;2023-04-16T11:18:31;100383.09;;;15.28;56.78
21730;BME280;11027;51.030;13.812;2023-04-16T11:20:56;100383.97;;;15.35;56.32
21730;BME280;11027;51.030;13.812;2023-04-16T11:23:22;100386.91;;;15.40;56.87
21730;BME280;11027;51.030;13.812;2023-04-16T11:25:47;100377.22;;;15.45;57.35
21730;BME280;11027;51.030;13.812;2023-04-16T11:28:15;100380.00;;;15.51;57.64
21730;BME280;11027;51.030;13.812;2023-04-16T11:30:41;100375.56;;;15.57;57.36
21730;BME280;11027;51.030;13.812;2023-04-16T11:33:07;100381.03;;;15.57;58.27
21730;BME280;11027;51.030;13.812;2023-04-16T11:35:33;100385.69;;;15.63;58.12
21730;BME280;11027;51.030;13.812;2023-04-16T11:37:58;100378.72;;;15.60;56.96
21730;BME280;11027;51.030;13.812;2023-04-16T11:40:24;100375.59;;;15.64;57.01
21730;BME280;11027;51.030;13.812;2023-04-16T11:42:53;100383.81;;;15.64;57.01
21730;BME280;11027;51.030;13.812;2023-04-16T11:45:18;100381.47;;;15.54;57.13
21730;BME280;11027;51.030;13.812;2023-04-16T11:47:47;100387.34;;;15.37;56.92
21730;BME280;11027;51.030;13.812;2023-04-16T11:50:24;100381.03;;;15.44;57.37
21730;BME280;11027;51.030;13.812;2023-04-16T11:52:51;100377.25;;;15.58;57.72
21730;BME280;11027;51.030;13.812;2023-04-16T11:55:17;100382.72;;;15.45;56.92
21730;BME280;11027;51.030;13.812;2023-04-16T11:57:42;100379.75;;;15.46;57.48
21730;BME280;11027;51.030;13.812;2023-04-16T12:00:08;100383.97;;;15.49;56.89
21730;BME280;11027;51.030;13.812;2023-04-16T12:02:47;100386.91;;;15.40;56.33
21730;BME280;11027;51.030;13.812;2023-04-16T12:07:57;100385.56;;;15.16;55.84
21730;BME280;11027;51.030;13.812;2023-04-16T12:10:23;100385.63;;;15.23;55.88
21730;BME280;11027;51.030;13.812;2023-04-16T12:12:49;100380.59;;;15.33;55.90
21730;BME280;11027;51.030;13.812;2023-04-16T12:15:14;100379.78;;;15.53;56.39
21730;BME280;11027;51.030;13.812;2023-04-16T12:17:40;100386.13;;;15.60;55.14
21730;BME280;11027;51.030;13.812;2023-04-16T12:22:36;100388.94;;;15.80;55.02
21730;BME280;11027;51.030;13.812;2023-04-16T12:25:12;100375.66;;;15.84;54.32
21730;BME280;11027;51.030;13.812;2023-04-16T12:27:53;100384.09;;;15.89;53.99
21730;BME280;11027;51.030;13.812;2023-04-16T12:30:24;100380.28;;;16.03;52.95
21730;BME280;11027;51.030;13.812;2023-04-16T12:32:52;100382.00;;;16.04;52.52
21730;BME280;11027;51.030;13.812;2023-04-16T12:35:36;100382.59;;;16.19;51.85
21730;BME280;11027;51.030;13.812;2023-04-16T12:38:02;100379.41;;;16.36;51.45
21730;BME280;11027;51.030;13.812;2023-04-16T12:40:27;100376.88;;;16.54;50.77
21730;BME280;11027;51.030;13.812;2023-04-16T12:42:52;100373.41;;;16.79;50.12
21730;BME280;11027;51.030;13.812;2023-04-16T12:45:18;100369.13;;;17.03;49.67
21730;BME280;11027;51.030;13.812;2023-04-16T12:47:44;100375.78;;;17.20;48.94
21730;BME280;11027;51.030;13.812;2023-04-16T12:50:09;100367.69;;;17.32;48.73
21730;BME280;11027;51.030;13.812;2023-04-16T12:52:34;100381.19;;;17.40;48.74